createdAt,value
2017-10-05T00:01:47.455Z,8.30
2017-10-05T00:04:15.739Z,9.60
2017-10-05T00:06:44.036Z,8.90
2017-10-05T00:09:13.159Z,11.53
2017-10-05T00:11:41.462Z,10.60
2017-10-05T00:14:09.748Z,9.23
2017-10-05T00:16:38.846Z,8.67
2017-10-05T00:19:07.135Z,9.17
2017-10-05T00:21:36.183Z,9.47
2017-10-05T00:24:06.141Z,9.63
2017-10-05T00:26:34.440Z,7.23
2017-10-05T00:29:03.507Z,7.23
2017-10-05T00:31:32.607Z,6.60
2017-10-05T00:34:00.895Z,5.63
2017-10-05T00:36:29.178Z,5.07
2017-10-05T00:38:57.515Z,7.03
2017-10-05T00:41:26.945Z,6.00
2017-10-05T00:43:55.220Z,3.27
2017-10-05T00:46:24.311Z,10.97
2017-10-05T00:48:53.972Z,9.33
2017-10-05T00:51:23.479Z,11.47
2017-10-05T00:53:53.100Z,13.83
2017-10-05T00:56:21.654Z,4.27
2017-10-05T00:58:50.731Z,8.60
2017-10-05T01:01:19.841Z,7.63
2017-10-05T01:03:48.145Z,8.80
2017-10-05T01:06:16.419Z,5.90
2017-10-05T01:08:45.186Z,6.30
2017-10-05T01:11:14.968Z,9.40
2017-10-05T01:13:43.251Z,8.50
2017-10-05T01:16:11.584Z,7.73
2017-10-05T01:18:41.008Z,6.50
2017-10-05T01:21:09.688Z,3.27
2017-10-05T01:23:39.147Z,6.23
2017-10-05T01:26:07.428Z,12.97
2017-10-05T01:28:36.855Z,7.13
2017-10-05T01:31:05.954Z,5.83
2017-10-05T01:33:34.243Z,4.20
2017-10-05T01:36:02.528Z,9.23
2017-10-05T01:38:31.622Z,10.43
2017-10-05T01:40:59.910Z,8.67
2017-10-05T01:43:28.187Z,4.83
2017-10-05T01:45:58.059Z,14.07
2017-10-05T01:48:26.344Z,6.67
2017-10-05T01:50:54.635Z,16.80
2017-10-05T01:53:22.952Z,10.53
2017-10-05T01:55:51.238Z,4.93
2017-10-05T01:58:19.524Z,4.37
2017-10-05T02:00:48.611Z,8.67
2017-10-05T02:03:17.670Z,14.33
2017-10-05T02:05:47.097Z,10.37
2017-10-05T02:08:15.438Z,8.73
2017-10-05T02:10:43.714Z,7.27
2017-10-05T02:13:12.773Z,8.27
2017-10-05T02:15:42.443Z,8.10
2017-10-05T02:18:10.590Z,10.67
2017-10-05T02:20:39.276Z,11.60
2017-10-05T02:23:08.755Z,11.60
2017-10-05T02:25:37.800Z,8.57
2017-10-05T02:28:06.083Z,13.83
2017-10-05T02:30:34.397Z,8.73
2017-10-05T02:33:03.833Z,10.30
2017-10-05T02:35:32.892Z,10.10
2017-10-05T02:38:02.714Z,14.37
2017-10-05T02:40:31.778Z,15.43
2017-10-05T02:43:01.191Z,8.80
2017-10-05T02:45:29.523Z,9.23
2017-10-05T02:47:57.803Z,12.53
2017-10-05T02:50:27.223Z,5.70
2017-10-05T02:52:56.895Z,12.03
2017-10-05T02:55:25.819Z,10.17
2017-10-05T02:57:55.247Z,6.73
2017-10-05T03:00:24.364Z,7.80
2017-10-05T03:02:53.992Z,9.83
2017-10-05T03:05:23.664Z,8.93
2017-10-05T03:07:51.987Z,6.47
2017-10-05T03:10:20.270Z,11.00
2017-10-05T03:12:49.679Z,7.67
2017-10-05T03:15:18.066Z,16.40
2017-10-05T03:17:46.358Z,7.33
2017-10-05T03:20:16.146Z,11.83
2017-10-05T03:22:44.458Z,9.63
2017-10-05T03:25:13.148Z,8.50
2017-10-05T03:27:42.559Z,7.70
2017-10-05T03:30:10.899Z,8.33
2017-10-05T03:32:39.945Z,10.53
2017-10-05T03:35:09.358Z,4.67
2017-10-05T03:37:39.024Z,6.60
2017-10-05T03:40:07.942Z,13.93
2017-10-05T03:42:36.222Z,10.70
2017-10-05T03:45:05.914Z,8.13
2017-10-05T03:47:35.423Z,6.47
2017-10-05T03:50:03.573Z,12.77
2017-10-05T03:52:31.935Z,7.73
2017-10-05T03:55:00.212Z,9.90
2017-10-05T03:57:28.486Z,14.33
2017-10-05T03:59:56.819Z,11.97
2017-10-05T04:02:25.092Z,14.10
2017-10-05T04:04:54.155Z,12.40
2017-10-05T04:07:22.491Z,10.40
2017-10-05T04:09:51.162Z,6.83
2017-10-05T04:12:20.948Z,8.27
2017-10-05T04:14:50.634Z,18.87
2017-10-05T04:17:19.183Z,8.57
2017-10-05T04:19:47.465Z,12.30
2017-10-05T04:22:15.788Z,15.50
2017-10-05T04:24:44.062Z,15.70
2017-10-05T04:27:12.365Z,18.43
2017-10-05T04:29:41.089Z,17.13
2017-10-05T04:32:09.368Z,12.63
2017-10-05T04:34:39.032Z,14.27
2017-10-05T04:37:08.508Z,14.43
2017-10-05T04:39:37.572Z,14.90
2017-10-05T04:42:05.847Z,9.97
2017-10-05T04:44:34.174Z,10.40
2017-10-05T04:47:03.224Z,10.33
2017-10-05T04:49:32.271Z,13.70
2017-10-05T04:52:01.940Z,13.87
2017-10-05T04:54:30.871Z,15.37
2017-10-05T04:56:59.176Z,16.10
2017-10-05T04:59:27.519Z,10.53
2017-10-05T05:01:55.839Z,17.63
2017-10-05T05:04:24.895Z,17.23
2017-10-05T05:06:54.003Z,16.57
2017-10-05T05:09:22.312Z,22.27
2017-10-05T05:11:51.387Z,18.73
2017-10-05T05:14:21.221Z,15.57
2017-10-05T05:16:49.510Z,30.57
2017-10-05T05:19:17.804Z,14.57
2017-10-05T05:21:46.134Z,24.10
2017-10-05T05:24:14.435Z,15.77
2017-10-05T05:26:43.876Z,17.37
2017-10-05T05:29:12.232Z,14.67
2017-10-05T05:31:40.520Z,15.67
2017-10-05T05:34:08.811Z,16.80
2017-10-05T05:36:37.943Z,21.63
2017-10-05T05:39:06.991Z,18.07
2017-10-05T05:41:35.311Z,14.80
2017-10-05T05:44:03.648Z,30.43
2017-10-05T05:46:32.725Z,23.10
2017-10-05T05:49:01.011Z,17.60
2017-10-05T05:51:29.346Z,22.87
2017-10-05T05:53:57.634Z,28.33
2017-10-05T05:56:27.073Z,27.93
2017-10-05T05:58:55.421Z,19.93
2017-10-05T06:01:24.842Z,24.87
2017-10-05T06:03:54.520Z,21.60
2017-10-05T06:06:22.701Z,21.90
2017-10-05T06:08:52.496Z,20.70
2017-10-05T06:11:20.788Z,18.70
2017-10-05T06:13:50.296Z,26.60
2017-10-05T06:16:18.582Z,32.87
2017-10-05T06:18:46.875Z,24.93
2017-10-05T06:21:15.223Z,29.27
2017-10-05T06:23:43.509Z,33.90
2017-10-05T06:26:12.571Z,27.70
2017-10-05T06:28:40.927Z,22.13
2017-10-05T06:31:09.991Z,27.30
2017-10-05T06:33:38.682Z,22.10
2017-10-05T06:36:07.035Z,29.07
2017-10-05T06:38:35.324Z,21.00
2017-10-05T06:41:03.620Z,32.90
2017-10-05T06:43:31.971Z,29.83
2017-10-05T06:46:00.264Z,34.07
2017-10-05T06:48:29.311Z,30.20
2017-10-05T06:50:57.683Z,32.47
2017-10-05T06:53:25.979Z,31.13
2017-10-05T06:55:54.277Z,23.90
2017-10-05T06:58:22.615Z,26.17
2017-10-05T07:00:52.258Z,27.57
2017-10-05T07:03:20.424Z,28.67
2017-10-05T07:05:49.286Z,35.67
2017-10-05T07:08:17.576Z,28.27
2017-10-05T07:10:47.211Z,30.93
2017-10-05T07:13:16.558Z,31.50
2017-10-05T07:15:44.860Z,24.67
2017-10-05T07:18:14.296Z,29.80
2017-10-05T07:20:43.051Z,35.20
2017-10-05T07:23:11.344Z,27.93
2017-10-05T07:25:41.143Z,31.37
2017-10-05T07:28:10.251Z,28.87
2017-10-05T07:30:38.543Z,50.40
2017-10-05T07:33:07.599Z,36.07
2017-10-05T07:35:35.931Z,35.87
2017-10-05T07:38:04.992Z,34.30
2017-10-05T07:40:34.431Z,32.30
2017-10-05T07:43:04.123Z,34.80
2017-10-05T07:45:33.643Z,30.77
2017-10-05T07:48:02.201Z,31.43
2017-10-05T07:50:32.183Z,38.00
2017-10-05T07:53:00.474Z,37.10
2017-10-05T07:55:28.787Z,29.07
2017-10-05T07:57:57.114Z,26.60
2017-10-05T08:00:26.544Z,40.50
2017-10-05T08:02:54.847Z,29.00
2017-10-05T08:05:23.183Z,34.67
2017-10-05T08:07:51.475Z,30.23
2017-10-05T08:10:20.914Z,25.30
2017-10-05T08:12:49.255Z,28.93
2017-10-05T08:15:18.311Z,28.00
2017-10-05T08:17:46.605Z,24.47
2017-10-05T08:20:16.084Z,29.47
2017-10-05T08:22:45.730Z,19.07
2017-10-05T08:25:14.291Z,19.33
2017-10-05T08:27:42.648Z,24.53
2017-10-05T08:30:10.943Z,21.47
2017-10-05T08:32:39.226Z,29.30
2017-10-05T08:35:08.339Z,16.53
2017-10-05T08:37:36.632Z,21.40
2017-10-05T08:40:04.928Z,14.67
2017-10-05T08:42:34.783Z,21.50
2017-10-05T08:45:03.074Z,17.50
2017-10-05T08:47:31.371Z,14.97
2017-10-05T08:49:59.727Z,14.70
2017-10-05T08:52:28.034Z,19.33
2017-10-05T08:54:56.327Z,18.53
2017-10-05T08:57:26.192Z,15.83
2017-10-05T08:59:54.484Z,13.53
2017-10-05T09:02:24.379Z,17.33
2017-10-05T09:04:53.967Z,10.57
2017-10-05T09:07:22.526Z,13.30
2017-10-05T09:09:50.823Z,17.03
2017-10-05T09:12:20.307Z,11.33
2017-10-05T09:14:48.990Z,11.90
2017-10-05T09:17:18.038Z,22.67
2017-10-05T09:19:46.366Z,15.90
2017-10-05T09:22:14.662Z,12.60
2017-10-05T09:24:42.954Z,10.63
2017-10-05T09:27:12.060Z,12.30
2017-10-05T09:29:40.743Z,11.97
2017-10-05T09:32:09.039Z,13.07
2017-10-05T09:34:37.363Z,13.90
2017-10-05T09:37:05.653Z,11.40
2017-10-05T09:39:33.952Z,9.23
2017-10-05T09:42:03.059Z,11.90
2017-10-05T09:44:32.492Z,11.53
2017-10-05T09:47:01.916Z,14.63
2017-10-05T09:49:30.635Z,9.73
2017-10-05T09:51:59.699Z,18.30
2017-10-05T09:54:27.990Z,11.03
2017-10-05T09:56:56.329Z,12.13
2017-10-05T09:59:26.128Z,13.03
2017-10-05T10:01:54.413Z,10.07
2017-10-05T10:04:22.774Z,16.17
2017-10-05T10:06:51.051Z,14.83
2017-10-05T10:09:19.344Z,11.90
2017-10-05T10:11:48.447Z,7.70
2017-10-05T10:14:16.738Z,10.10
2017-10-05T10:16:45.028Z,16.87
2017-10-05T10:19:14.122Z,10.43
2017-10-05T10:21:43.180Z,21.23
2017-10-05T10:24:11.462Z,18.70
2017-10-05T10:26:39.787Z,17.03
2017-10-05T10:29:08.082Z,17.30
2017-10-05T10:31:36.371Z,23.40
2017-10-05T10:34:04.703Z,17.97
2017-10-05T10:36:33.754Z,23.90
2017-10-05T10:39:02.039Z,14.20
2017-10-05T10:41:31.168Z,23.60
2017-10-05T10:44:00.222Z,20.13
2017-10-05T10:46:28.510Z,14.43
2017-10-05T10:48:58.368Z,13.23
2017-10-05T10:51:26.655Z,11.43
2017-10-05T10:53:54.952Z,10.97
2017-10-05T10:56:23.287Z,8.50
2017-10-05T10:58:51.967Z,11.30
2017-10-05T11:01:21.027Z,6.63
2017-10-05T11:03:49.347Z,3.13
2017-10-05T11:06:17.630Z,8.00
2017-10-05T11:08:45.908Z,5.97
2017-10-05T11:11:14.229Z,7.80
2017-10-05T11:13:42.498Z,9.67
2017-10-05T11:16:11.557Z,6.93
2017-10-05T11:18:39.919Z,9.70
2017-10-05T11:21:08.970Z,6.43
2017-10-05T11:23:38.399Z,12.00
2017-10-05T11:26:07.876Z,11.80
2017-10-05T11:28:36.170Z,13.33
2017-10-05T11:31:04.452Z,6.40
2017-10-05T11:33:32.783Z,5.53
2017-10-05T11:36:01.074Z,6.33
2017-10-05T11:38:29.369Z,8.37
2017-10-05T11:40:59.044Z,7.33
2017-10-05T11:43:27.972Z,8.53
2017-10-05T11:45:57.390Z,7.00
2017-10-05T11:48:25.731Z,3.40
2017-10-05T11:50:54.014Z,4.00
2017-10-05T11:53:23.071Z,2.73
2017-10-05T11:55:52.153Z,8.20
2017-10-05T11:58:20.440Z,5.03
2017-10-05T12:00:49.493Z,4.47
2017-10-05T12:03:17.818Z,19.67
2017-10-05T12:05:46.103Z,6.10
2017-10-05T12:08:14.382Z,3.10
2017-10-05T12:10:42.721Z,6.07
2017-10-05T12:13:10.999Z,4.20
2017-10-05T12:15:40.058Z,4.60
2017-10-05T12:18:08.382Z,7.27
2017-10-05T12:20:36.667Z,11.33
2017-10-05T12:23:04.947Z,4.87
2017-10-05T12:25:33.300Z,6.17
2017-10-05T12:28:01.588Z,5.07
2017-10-05T12:30:29.870Z,7.47
2017-10-05T12:32:59.756Z,6.60
2017-10-05T12:35:28.027Z,2.93
2017-10-05T12:37:57.075Z,6.40
2017-10-05T12:40:25.429Z,4.93
2017-10-05T12:42:53.712Z,3.70
2017-10-05T12:45:23.491Z,3.30
2017-10-05T12:47:51.831Z,5.00
2017-10-05T12:50:21.626Z,8.00
2017-10-05T12:52:50.671Z,9.93
2017-10-05T12:55:19.742Z,1.50
2017-10-05T12:57:49.376Z,8.33
2017-10-05T13:00:18.292Z,4.97
2017-10-05T13:02:46.619Z,6.50
2017-10-05T13:05:16.250Z,8.17
2017-10-05T13:07:44.796Z,1.77
2017-10-05T13:10:13.129Z,2.37
2017-10-05T13:12:41.798Z,2.93
2017-10-05T13:15:11.430Z,7.77
2017-10-05T13:17:39.654Z,2.70
2017-10-05T13:20:07.934Z,4.10
2017-10-05T13:22:36.216Z,3.23
2017-10-05T13:25:05.898Z,4.00
2017-10-05T13:27:35.187Z,2.13
2017-10-05T13:30:03.474Z,2.50
2017-10-05T13:32:31.788Z,6.40
2017-10-05T13:35:00.072Z,3.90
2017-10-05T13:37:28.357Z,4.70
2017-10-05T13:39:56.711Z,2.40
2017-10-05T13:42:24.992Z,4.17
2017-10-05T13:44:54.411Z,5.63
2017-10-05T13:47:24.079Z,9.30
2017-10-05T13:49:53.002Z,9.27
2017-10-05T13:52:21.299Z,8.80
2017-10-05T13:54:49.623Z,1.90
2017-10-05T13:57:19.269Z,4.87
2017-10-05T13:59:47.427Z,8.10
2017-10-05T14:02:16.170Z,7.40
2017-10-05T14:04:45.206Z,3.77
2017-10-05T14:07:13.485Z,8.17
2017-10-05T14:09:41.809Z,5.57
2017-10-05T14:12:11.231Z,2.40
2017-10-05T14:14:39.515Z,1.83
2017-10-05T14:17:07.843Z,3.27
2017-10-05T14:19:36.122Z,6.90
2017-10-05T14:22:04.394Z,4.00
2017-10-05T14:24:34.067Z,2.30
2017-10-05T14:27:02.219Z,7.53
2017-10-05T14:29:30.891Z,4.80
2017-10-05T14:31:59.215Z,6.70
2017-10-05T14:34:28.842Z,8.93
2017-10-05T14:36:57.392Z,5.93
2017-10-05T14:39:27.074Z,7.60
2017-10-05T14:41:55.637Z,5.43
2017-10-05T14:44:25.115Z,4.97
2017-10-05T14:46:54.943Z,2.60
2017-10-05T14:49:24.385Z,7.00
2017-10-05T14:51:53.071Z,5.67
2017-10-05T14:54:21.569Z,3.30
2017-10-05T14:56:49.855Z,6.60
2017-10-05T14:59:18.135Z,5.33
2017-10-05T15:01:47.099Z,7.43
2017-10-05T15:04:16.518Z,7.93
2017-10-05T15:06:44.794Z,7.13
2017-10-05T15:09:13.123Z,8.43
2017-10-05T15:11:42.532Z,10.07
2017-10-05T15:14:10.904Z,7.33
2017-10-05T15:16:39.252Z,8.87
2017-10-05T15:19:07.537Z,5.60
2017-10-05T15:21:37.387Z,5.70
2017-10-05T15:24:06.903Z,7.73
2017-10-05T15:26:36.132Z,7.03
2017-10-05T15:29:04.956Z,7.10
2017-10-05T15:31:35.214Z,6.83
2017-10-05T15:34:03.375Z,9.23
2017-10-05T15:36:31.699Z,9.53
2017-10-05T15:39:00.891Z,5.27
2017-10-05T15:41:29.205Z,6.83
2017-10-05T15:43:57.562Z,9.87
2017-10-05T15:46:26.140Z,10.27
2017-10-05T15:48:54.470Z,5.80
2017-10-05T15:51:22.911Z,7.40
2017-10-05T15:53:52.563Z,8.73
2017-10-05T15:56:20.885Z,9.47
2017-10-05T15:58:49.224Z,4.07
2017-10-05T16:01:18.892Z,8.03
2017-10-05T16:03:48.219Z,7.73
2017-10-05T16:06:18.454Z,8.67
2017-10-05T16:08:46.783Z,6.80
2017-10-05T16:11:15.069Z,4.53
2017-10-05T16:13:43.351Z,4.50
2017-10-05T16:16:12.545Z,4.20
2017-10-05T16:18:41.216Z,7.03
2017-10-05T16:21:09.525Z,6.37
2017-10-05T16:23:39.454Z,8.40
2017-10-05T16:26:08.519Z,6.70
2017-10-05T16:28:37.716Z,7.77
2017-10-05T16:31:06.937Z,13.20
2017-10-05T16:33:36.682Z,5.67
2017-10-05T16:36:04.954Z,4.20
2017-10-05T16:38:34.039Z,10.53
2017-10-05T16:41:03.157Z,9.97
2017-10-05T16:43:31.669Z,5.83
2017-10-05T16:46:00.554Z,5.87
2017-10-05T16:48:29.599Z,3.93
2017-10-05T16:50:59.175Z,12.03
2017-10-05T16:53:29.136Z,3.63
2017-10-05T16:55:58.927Z,9.13
2017-10-05T16:58:27.224Z,13.63
2017-10-05T17:00:55.567Z,15.03
2017-10-05T17:03:25.197Z,14.30
2017-10-05T17:05:53.360Z,10.67
2017-10-05T17:08:21.703Z,5.27
2017-10-05T17:10:51.259Z,12.87
2017-10-05T17:13:19.950Z,12.00
2017-10-05T17:15:48.282Z,11.10
2017-10-05T17:18:16.579Z,9.70
2017-10-05T17:20:44.867Z,8.77
2017-10-05T17:23:13.392Z,8.93
2017-10-05T17:25:43.602Z,4.63
2017-10-05T17:28:12.291Z,6.40
2017-10-05T17:30:42.335Z,6.57
2017-10-05T17:33:10.533Z,5.97
2017-10-05T17:35:42.867Z,9.60
2017-10-05T17:38:12.381Z,6.37
2017-10-05T17:40:41.028Z,4.80
2017-10-05T17:43:10.020Z,12.00
2017-10-05T17:45:39.468Z,10.20
2017-10-05T17:48:07.804Z,12.47
2017-10-05T17:50:37.706Z,12.27
2017-10-05T17:53:06.090Z,7.80
2017-10-05T17:55:35.235Z,17.47
2017-10-05T17:58:03.587Z,18.30
2017-10-05T18:00:32.663Z,11.23
2017-10-05T18:03:01.168Z,13.27
2017-10-05T18:05:31.438Z,6.37
2017-10-05T18:08:00.939Z,13.63
2017-10-05T18:10:29.086Z,8.63
2017-10-05T18:12:57.405Z,7.73
2017-10-05T18:15:26.504Z,5.77
2017-10-05T18:17:56.296Z,11.50
2017-10-05T18:20:25.974Z,16.23
2017-10-05T18:22:54.515Z,8.47
2017-10-05T18:25:23.570Z,14.60
2017-10-05T18:27:52.856Z,6.23
2017-10-05T18:30:21.143Z,10.33
2017-10-05T18:32:49.419Z,13.07
2017-10-05T18:35:17.772Z,21.90
2017-10-05T18:37:47.461Z,11.57
2017-10-05T18:40:15.767Z,8.77
2017-10-05T18:42:44.844Z,7.97
2017-10-05T18:45:14.363Z,7.50
2017-10-05T18:47:42.707Z,13.40
2017-10-05T18:50:11.159Z,10.73
2017-10-05T18:52:40.215Z,8.20
2017-10-05T18:55:08.515Z,10.03
2017-10-05T18:57:37.027Z,8.87
2017-10-05T19:00:06.463Z,11.30
2017-10-05T19:02:34.803Z,8.60
2017-10-05T19:05:03.168Z,10.83
2017-10-05T19:07:32.596Z,10.67
2017-10-05T19:10:00.888Z,11.83
2017-10-05T19:12:29.223Z,10.47
2017-10-05T19:14:57.909Z,10.90
2017-10-05T19:17:26.312Z,10.93
2017-10-05T19:19:55.400Z,6.13
2017-10-05T19:22:25.484Z,8.10
2017-10-05T19:24:53.768Z,11.67
2017-10-05T19:27:22.860Z,12.13
2017-10-05T19:29:51.939Z,10.50
2017-10-05T19:32:21.884Z,14.77
2017-10-05T19:34:50.364Z,13.47
2017-10-05T19:37:19.088Z,9.37
2017-10-05T19:39:48.144Z,6.40
2017-10-05T19:42:16.752Z,12.47
2017-10-05T19:44:45.125Z,8.50
2017-10-05T19:47:13.496Z,17.17
2017-10-05T19:49:41.908Z,11.80
2017-10-05T19:52:10.585Z,12.90
2017-10-05T19:54:38.946Z,8.00
2017-10-05T19:57:08.718Z,13.77
2017-10-05T19:59:38.213Z,7.67
2017-10-05T20:02:06.497Z,7.30
2017-10-05T20:04:36.181Z,14.23
2017-10-05T20:07:05.250Z,7.60
2017-10-05T20:09:34.309Z,7.83
2017-10-05T20:12:02.698Z,9.23
2017-10-05T20:14:37.468Z,6.57
2017-10-05T20:17:13.376Z,8.43
2017-10-05T20:19:56.060Z,5.87
2017-10-05T20:22:31.230Z,9.00
2017-10-05T20:28:10.877Z,9.67
2017-10-05T20:30:44.892Z,6.80
2017-10-05T20:33:13.225Z,9.57
2017-10-05T20:35:41.499Z,6.03
2017-10-05T20:38:09.798Z,10.00
2017-10-05T20:40:38.907Z,9.50
2017-10-05T20:43:07.199Z,10.13
2017-10-05T20:45:35.480Z,13.00
2017-10-05T20:48:03.829Z,7.27
2017-10-05T20:50:33.252Z,13.47
2017-10-05T20:53:02.332Z,10.63
2017-10-05T20:55:31.794Z,6.97
2017-10-05T20:58:00.085Z,15.83
2017-10-05T21:00:28.773Z,14.23
2017-10-05T21:02:57.871Z,16.70
2017-10-05T21:05:26.180Z,8.30
2017-10-05T21:07:54.461Z,9.57
2017-10-05T21:10:22.790Z,7.73
2017-10-05T21:12:51.075Z,6.67
2017-10-05T21:15:20.493Z,7.37
2017-10-05T21:17:48.848Z,8.93
2017-10-05T21:20:17.134Z,9.70
2017-10-05T21:22:45.423Z,8.53
2017-10-05T21:25:13.752Z,12.57
2017-10-05T21:27:43.546Z,7.13
2017-10-05T21:30:11.837Z,12.50
2017-10-05T21:32:41.546Z,8.13
2017-10-05T21:35:09.707Z,7.73
2017-10-05T21:37:37.987Z,6.27
2017-10-05T21:40:06.737Z,10.27
2017-10-05T21:42:36.380Z,12.37
2017-10-05T21:45:05.310Z,5.07
2017-10-05T21:47:34.037Z,11.20
2017-10-05T21:50:02.334Z,6.30
2017-10-05T21:52:30.624Z,10.33
2017-10-05T21:55:00.095Z,5.50
2017-10-05T21:57:28.380Z,5.83
2017-10-05T21:59:57.440Z,6.97
2017-10-05T22:02:26.540Z,7.80
2017-10-05T22:04:55.587Z,5.33
2017-10-05T22:07:23.880Z,4.80
2017-10-05T22:09:53.367Z,4.10
2017-10-05T22:12:23.007Z,10.20
2017-10-05T22:14:51.940Z,5.83
2017-10-05T22:17:21.417Z,7.80
2017-10-05T22:19:50.468Z,6.33
2017-10-05T22:22:19.524Z,10.40
2017-10-05T22:24:47.856Z,8.10
2017-10-05T22:27:16.904Z,5.33
2017-10-05T22:29:45.196Z,6.77
2017-10-05T22:32:13.936Z,8.00
2017-10-05T22:34:42.297Z,4.73
2017-10-05T22:37:10.593Z,10.03
2017-10-05T22:39:40.279Z,9.67
2017-10-05T22:42:08.445Z,12.37
2017-10-05T22:44:37.503Z,11.33
2017-10-05T22:47:07.191Z,5.77
2017-10-05T22:49:35.352Z,5.60
2017-10-05T22:52:03.640Z,10.30
2017-10-05T22:54:31.973Z,14.33
2017-10-05T22:57:01.764Z,5.63
2017-10-05T22:59:30.052Z,9.00
2017-10-05T23:01:59.148Z,12.33
2017-10-05T23:04:27.440Z,6.30
2017-10-05T23:06:57.071Z,10.60
2017-10-05T23:09:25.291Z,12.97
2017-10-05T23:11:53.584Z,6.93
2017-10-05T23:14:21.870Z,6.87
2017-10-05T23:16:51.001Z,8.93
2017-10-05T23:19:20.050Z,8.00
2017-10-05T23:21:48.331Z,4.67
2017-10-05T23:24:17.064Z,6.80
2017-10-05T23:26:46.484Z,8.17
2017-10-05T23:29:14.771Z,4.63
2017-10-05T23:31:43.137Z,7.70
2017-10-05T23:34:11.416Z,8.90
2017-10-05T23:36:39.701Z,10.43
2017-10-05T23:39:08.800Z,11.37
2017-10-05T23:41:37.088Z,10.10
2017-10-05T23:44:06.139Z,8.57
2017-10-05T23:46:34.463Z,6.37
2017-10-05T23:49:03.520Z,5.77
2017-10-05T23:51:31.804Z,9.33
2017-10-05T23:54:00.195Z,8.63
2017-10-05T23:56:29.612Z,9.73
2017-10-05T23:58:57.896Z,4.70
